sensor_id;sensor_type;location;lat;lon;timestamp;P1;durP1;ratioP1;P2;durP2;ratioP2
51578;SDS011;47998;53.242;6.386;2023-07-28T00:02:06;45.92;;;18.27;;
51578;SDS011;47998;53.242;6.386;2023-07-28T00:04:33;39.55;;;18.63;;
51578;SDS011;47998;53.242;6.386;2023-07-28T00:07:00;45.03;;;19.58;;
51578;SDS011;47998;53.242;6.386;2023-07-28T00:09:26;42.03;;;18.58;;
51578;SDS011;47998;53.242;6.386;2023-07-28T00:11:51;37.30;;;16.17;;
51578;SDS011;47998;53.242;6.386;2023-07-28T00:14:17;28.15;;;13.98;;
51578;SDS011;47998;53.242;6.386;2023-07-28T00:16:43;43.03;;;18.60;;
51578;SDS011;47998;53.242;6.386;2023-07-28T00:19:08;45.05;;;16.50;;
51578;SDS011;47998;53.242;6.386;2023-07-28T00:21:34;32.70;;;14.88;;
51578;SDS011;47998;53.242;6.386;2023-07-28T00:24:00;51.00;;;19.67;;
51578;SDS011;47998;53.242;6.386;2023-07-28T00:26:25;39.50;;;17.05;;
51578;SDS011;47998;53.242;6.386;2023-07-28T00:28:51;39.72;;;18.08;;
51578;SDS011;47998;53.242;6.386;2023-07-28T00:31:17;40.40;;;18.63;;
51578;SDS011;47998;53.242;6.386;2023-07-28T00:33:43;44.10;;;20.50;;
51578;SDS011;47998;53.242;6.386;2023-07-28T00:36:08;43.33;;;17.75;;
51578;SDS011;47998;53.242;6.386;2023-07-28T00:38:34;40.78;;;18.00;;
51578;SDS011;47998;53.242;6.386;2023-07-28T00:41:00;40.50;;;17.27;;
51578;SDS011;47998;53.242;6.386;2023-07-28T00:43:27;31.95;;;16.10;;
51578;SDS011;47998;53.242;6.386;2023-07-28T00:45:52;34.65;;;17.23;;
51578;SDS011;47998;53.242;6.386;2023-07-28T00:48:18;39.92;;;18.20;;
51578;SDS011;47998;53.242;6.386;2023-07-28T00:50:45;32.35;;;16.23;;
51578;SDS011;47998;53.242;6.386;2023-07-28T00:53:13;42.95;;;20.25;;
51578;SDS011;47998;53.242;6.386;2023-07-28T00:55:39;48.88;;;19.85;;
51578;SDS011;47998;53.242;6.386;2023-07-28T00:58:06;40.38;;;17.02;;
51578;SDS011;47998;53.242;6.386;2023-07-28T01:00:31;48.63;;;21.27;;
51578;SDS011;47998;53.242;6.386;2023-07-28T01:02:57;37.85;;;17.67;;
51578;SDS011;47998;53.242;6.386;2023-07-28T01:05:28;40.50;;;18.20;;
51578;SDS011;47998;53.242;6.386;2023-07-28T01:08:06;49.38;;;18.83;;
51578;SDS011;47998;53.242;6.386;2023-07-28T01:10:41;67.60;;;22.83;;
51578;SDS011;47998;53.242;6.386;2023-07-28T01:13:08;35.42;;;16.13;;
51578;SDS011;47998;53.242;6.386;2023-07-28T01:15:34;55.22;;;21.52;;
51578;SDS011;47998;53.242;6.386;2023-07-28T01:18:00;47.65;;;18.27;;
51578;SDS011;47998;53.242;6.386;2023-07-28T01:20:26;51.40;;;20.95;;
51578;SDS011;47998;53.242;6.386;2023-07-28T01:23:07;51.08;;;22.50;;
51578;SDS011;47998;53.242;6.386;2023-07-28T01:25:49;43.85;;;19.73;;
51578;SDS011;47998;53.242;6.386;2023-07-28T01:28:41;73.63;;;24.35;;
51578;SDS011;47998;53.242;6.386;2023-07-28T01:31:09;52.95;;;21.42;;
51578;SDS011;47998;53.242;6.386;2023-07-28T01:33:35;43.03;;;18.95;;
51578;SDS011;47998;53.242;6.386;2023-07-28T01:36:01;41.08;;;17.27;;
51578;SDS011;47998;53.242;6.386;2023-07-28T01:38:28;39.60;;;16.70;;
51578;SDS011;47998;53.242;6.386;2023-07-28T01:40:53;37.63;;;17.17;;
51578;SDS011;47998;53.242;6.386;2023-07-28T01:43:19;65.35;;;24.08;;
51578;SDS011;47998;53.242;6.386;2023-07-28T01:45:45;59.95;;;22.15;;
51578;SDS011;47998;53.242;6.386;2023-07-28T01:48:11;57.75;;;22.27;;
51578;SDS011;47998;53.242;6.386;2023-07-28T01:50:37;48.17;;;18.55;;
51578;SDS011;47998;53.242;6.386;2023-07-28T01:53:03;49.75;;;20.55;;
51578;SDS011;47998;53.242;6.386;2023-07-28T01:55:30;40.85;;;18.60;;
51578;SDS011;47998;53.242;6.386;2023-07-28T01:58:00;40.03;;;16.70;;
51578;SDS011;47998;53.242;6.386;2023-07-28T02:00:27;38.13;;;17.90;;
51578;SDS011;47998;53.242;6.386;2023-07-28T02:02:53;50.65;;;20.42;;
51578;SDS011;47998;53.242;6.386;2023-07-28T02:05:19;45.15;;;19.63;;
51578;SDS011;47998;53.242;6.386;2023-07-28T02:07:45;48.88;;;20.65;;
51578;SDS011;47998;53.242;6.386;2023-07-28T02:10:11;47.28;;;19.80;;
51578;SDS011;47998;53.242;6.386;2023-07-28T02:12:37;51.00;;;19.30;;
51578;SDS011;47998;53.242;6.386;2023-07-28T02:15:04;39.78;;;18.52;;
51578;SDS011;47998;53.242;6.386;2023-07-28T02:17:30;46.97;;;19.95;;
51578;SDS011;47998;53.242;6.386;2023-07-28T02:19:56;49.92;;;19.85;;
51578;SDS011;47998;53.242;6.386;2023-07-28T02:22:22;51.45;;;21.17;;
51578;SDS011;47998;53.242;6.386;2023-07-28T02:24:47;51.03;;;21.27;;
51578;SDS011;47998;53.242;6.386;2023-07-28T02:27:13;53.63;;;21.80;;
51578;SDS011;47998;53.242;6.386;2023-07-28T02:29:39;47.03;;;20.15;;
51578;SDS011;47998;53.242;6.386;2023-07-28T02:32:05;44.70;;;19.70;;
51578;SDS011;47998;53.242;6.386;2023-07-28T02:34:31;51.33;;;23.33;;
51578;SDS011;47998;53.242;6.386;2023-07-28T02:36:57;61.67;;;23.45;;
51578;SDS011;47998;53.242;6.386;2023-07-28T02:39:23;51.60;;;20.38;;
51578;SDS011;47998;53.242;6.386;2023-07-28T02:41:49;52.35;;;21.50;;
51578;SDS011;47998;53.242;6.386;2023-07-28T02:44:15;47.40;;;21.35;;
51578;SDS011;47998;53.242;6.386;2023-07-28T02:46:41;55.67;;;23.13;;
51578;SDS011;47998;53.242;6.386;2023-07-28T02:49:06;49.58;;;21.95;;
51578;SDS011;47998;53.242;6.386;2023-07-28T02:51:32;41.58;;;18.95;;
51578;SDS011;47998;53.242;6.386;2023-07-28T02:54:01;49.90;;;20.05;;
51578;SDS011;47998;53.242;6.386;2023-07-28T02:56:26;51.70;;;20.20;;
51578;SDS011;47998;53.242;6.386;2023-07-28T02:58:52;46.85;;;21.20;;
51578;SDS011;47998;53.242;6.386;2023-07-28T03:01:18;47.05;;;20.30;;
51578;SDS011;47998;53.242;6.386;2023-07-28T03:03:44;45.60;;;20.50;;
51578;SDS011;47998;53.242;6.386;2023-07-28T03:06:12;46.53;;;20.08;;
51578;SDS011;47998;53.242;6.386;2023-07-28T03:08:38;72.13;;;23.85;;
51578;SDS011;47998;53.242;6.386;2023-07-28T03:11:04;52.22;;;20.73;;
51578;SDS011;47998;53.242;6.386;2023-07-28T03:13:29;53.25;;;21.02;;
51578;SDS011;47998;53.242;6.386;2023-07-28T03:15:55;35.08;;;17.48;;
51578;SDS011;47998;53.242;6.386;2023-07-28T03:18:20;53.67;;;22.52;;
51578;SDS011;47998;53.242;6.386;2023-07-28T03:20:46;63.95;;;21.88;;
51578;SDS011;47998;53.242;6.386;2023-07-28T03:23:12;46.08;;;19.83;;
51578;SDS011;47998;53.242;6.386;2023-07-28T03:25:39;36.80;;;18.77;;
51578;SDS011;47998;53.242;6.386;2023-07-28T03:28:04;43.10;;;18.98;;
51578;SDS011;47998;53.242;6.386;2023-07-28T03:30:30;33.70;;;16.52;;
51578;SDS011;47998;53.242;6.386;2023-07-28T03:32:56;37.97;;;16.55;;
51578;SDS011;47998;53.242;6.386;2023-07-28T03:35:22;35.17;;;15.57;;
51578;SDS011;47998;53.242;6.386;2023-07-28T03:37:47;37.78;;;16.50;;
51578;SDS011;47998;53.242;6.386;2023-07-28T03:40:13;51.25;;;17.90;;
51578;SDS011;47998;53.242;6.386;2023-07-28T03:42:39;34.67;;;15.57;;
51578;SDS011;47998;53.242;6.386;2023-07-28T03:45:05;39.53;;;15.82;;
51578;SDS011;47998;53.242;6.386;2023-07-28T03:47:33;33.22;;;14.98;;
51578;SDS011;47998;53.242;6.386;2023-07-28T03:49:59;39.55;;;16.45;;
51578;SDS011;47998;53.242;6.386;2023-07-28T03:52:24;41.15;;;15.63;;
51578;SDS011;47998;53.242;6.386;2023-07-28T03:54:50;30.27;;;13.38;;
51578;SDS011;47998;53.242;6.386;2023-07-28T03:57:16;34.85;;;15.27;;
51578;SDS011;47998;53.242;6.386;2023-07-28T03:59:41;35.42;;;15.40;;
51578;SDS011;47998;53.242;6.386;2023-07-28T04:02:07;39.20;;;16.52;;
51578;SDS011;47998;53.242;6.386;2023-07-28T04:04:33;44.42;;;18.83;;
51578;SDS011;47998;53.242;6.386;2023-07-28T04:07:00;39.90;;;18.10;;
51578;SDS011;47998;53.242;6.386;2023-07-28T04:09:26;44.05;;;18.85;;
51578;SDS011;47998;53.242;6.386;2023-07-28T04:11:52;33.70;;;16.48;;
51578;SDS011;47998;53.242;6.386;2023-07-28T04:14:18;36.05;;;16.50;;
51578;SDS011;47998;53.242;6.386;2023-07-28T04:16:43;34.72;;;17.98;;
51578;SDS011;47998;53.242;6.386;2023-07-28T04:19:09;32.42;;;16.40;;
51578;SDS011;47998;53.242;6.386;2023-07-28T04:21:35;31.55;;;17.45;;
51578;SDS011;47998;53.242;6.386;2023-07-28T04:24:05;23.80;;;13.40;;
51578;SDS011;47998;53.242;6.386;2023-07-28T04:26:32;23.38;;;13.02;;
51578;SDS011;47998;53.242;6.386;2023-07-28T04:28:57;31.17;;;14.20;;
51578;SDS011;47998;53.242;6.386;2023-07-28T04:31:23;35.20;;;15.57;;
51578;SDS011;47998;53.242;6.386;2023-07-28T04:33:49;25.20;;;12.32;;
51578;SDS011;47998;53.242;6.386;2023-07-28T04:36:14;25.63;;;13.07;;
51578;SDS011;47998;53.242;6.386;2023-07-28T04:38:40;28.92;;;12.57;;
51578;SDS011;47998;53.242;6.386;2023-07-28T04:41:06;24.73;;;13.52;;
51578;SDS011;47998;53.242;6.386;2023-07-28T04:43:31;23.42;;;12.18;;
51578;SDS011;47998;53.242;6.386;2023-07-28T04:45:57;19.77;;;9.98;;
51578;SDS011;47998;53.242;6.386;2023-07-28T04:48:23;23.20;;;12.23;;
51578;SDS011;47998;53.242;6.386;2023-07-28T04:50:48;34.60;;;13.93;;
51578;SDS011;47998;53.242;6.386;2023-07-28T04:53:14;15.55;;;10.63;;
51578;SDS011;47998;53.242;6.386;2023-07-28T04:55:40;22.08;;;11.45;;
51578;SDS011;47998;53.242;6.386;2023-07-28T04:58:05;18.58;;;11.13;;
51578;SDS011;47998;53.242;6.386;2023-07-28T05:00:31;19.02;;;11.10;;
51578;SDS011;47998;53.242;6.386;2023-07-28T05:02:57;25.42;;;12.75;;
51578;SDS011;47998;53.242;6.386;2023-07-28T05:05:22;20.95;;;12.15;;
51578;SDS011;47998;53.242;6.386;2023-07-28T05:07:48;20.88;;;10.75;;
51578;SDS011;47998;53.242;6.386;2023-07-28T05:10:14;30.50;;;12.57;;
51578;SDS011;47998;53.242;6.386;2023-07-28T05:12:39;23.73;;;12.18;;
51578;SDS011;47998;53.242;6.386;2023-07-28T05:15:05;23.08;;;11.35;;
51578;SDS011;47998;53.242;6.386;2023-07-28T05:17:35;23.70;;;11.63;;
51578;SDS011;47998;53.242;6.386;2023-07-28T05:20:02;26.30;;;12.48;;
51578;SDS011;47998;53.242;6.386;2023-07-28T05:22:28;25.33;;;12.10;;
51578;SDS011;47998;53.242;6.386;2023-07-28T05:24:54;25.83;;;11.90;;
51578;SDS011;47998;53.242;6.386;2023-07-28T05:27:19;21.08;;;10.45;;
51578;SDS011;47998;53.242;6.386;2023-07-28T05:29:45;23.85;;;11.15;;
51578;SDS011;47998;53.242;6.386;2023-07-28T05:32:11;20.15;;;10.32;;
51578;SDS011;47998;53.242;6.386;2023-07-28T05:34:36;25.25;;;9.57;;
51578;SDS011;47998;53.242;6.386;2023-07-28T05:37:02;16.77;;;10.70;;
51578;SDS011;47998;53.242;6.386;2023-07-28T05:39:28;15.38;;;9.75;;
51578;SDS011;47998;53.242;6.386;2023-07-28T05:41:54;21.48;;;10.18;;
51578;SDS011;47998;53.242;6.386;2023-07-28T05:44:20;19.92;;;10.52;;
51578;SDS011;47998;53.242;6.386;2023-07-28T05:46:48;21.30;;;9.07;;
51578;SDS011;47998;53.242;6.386;2023-07-28T05:49:15;20.67;;;10.75;;
51578;SDS011;47998;53.242;6.386;2023-07-28T05:51:40;20.45;;;10.50;;
51578;SDS011;47998;53.242;6.386;2023-07-28T05:54:06;12.57;;;9.05;;
51578;SDS011;47998;53.242;6.386;2023-07-28T05:56:32;16.10;;;10.68;;
51578;SDS011;47998;53.242;6.386;2023-07-28T05:58:57;16.20;;;10.13;;
51578;SDS011;47998;53.242;6.386;2023-07-28T06:01:23;17.35;;;11.30;;
51578;SDS011;47998;53.242;6.386;2023-07-28T06:03:51;16.80;;;12.30;;
51578;SDS011;47998;53.242;6.386;2023-07-28T06:06:20;19.13;;;11.00;;
51578;SDS011;47998;53.242;6.386;2023-07-28T06:08:47;14.38;;;9.68;;
51578;SDS011;47998;53.242;6.386;2023-07-28T06:11:12;13.50;;;10.13;;
51578;SDS011;47998;53.242;6.386;2023-07-28T06:13:38;14.45;;;10.80;;
51578;SDS011;47998;53.242;6.386;2023-07-28T06:16:04;16.38;;;12.70;;
51578;SDS011;47998;53.242;6.386;2023-07-28T06:18:30;15.90;;;12.07;;
51578;SDS011;47998;53.242;6.386;2023-07-28T06:20:55;16.10;;;13.00;;
51578;SDS011;47998;53.242;6.386;2023-07-28T06:23:21;17.30;;;11.80;;
51578;SDS011;47998;53.242;6.386;2023-07-28T06:25:47;17.10;;;12.55;;
51578;SDS011;47998;53.242;6.386;2023-07-28T06:28:15;13.23;;;11.40;;
51578;SDS011;47998;53.242;6.386;2023-07-28T06:30:41;16.80;;;14.35;;
51578;SDS011;47998;53.242;6.386;2023-07-28T06:33:07;20.02;;;11.35;;
51578;SDS011;47998;53.242;6.386;2023-07-28T06:35:33;15.23;;;10.77;;
51578;SDS011;47998;53.242;6.386;2023-07-28T06:38:00;14.85;;;11.63;;
51578;SDS011;47998;53.242;6.386;2023-07-28T06:40:27;14.10;;;12.13;;
51578;SDS011;47998;53.242;6.386;2023-07-28T06:42:53;11.73;;;9.93;;
51578;SDS011;47998;53.242;6.386;2023-07-28T06:45:19;20.27;;;13.30;;
51578;SDS011;47998;53.242;6.386;2023-07-28T06:47:45;13.35;;;10.52;;
51578;SDS011;47998;53.242;6.386;2023-07-28T06:50:11;14.43;;;11.88;;
51578;SDS011;47998;53.242;6.386;2023-07-28T06:52:37;12.95;;;9.93;;
51578;SDS011;47998;53.242;6.386;2023-07-28T06:55:03;11.57;;;10.10;;
51578;SDS011;47998;53.242;6.386;2023-07-28T06:57:29;13.32;;;10.77;;
51578;SDS011;47998;53.242;6.386;2023-07-28T06:59:55;12.88;;;11.18;;
51578;SDS011;47998;53.242;6.386;2023-07-28T07:02:22;13.50;;;9.20;;
51578;SDS011;47998;53.242;6.386;2023-07-28T07:04:48;10.88;;;7.80;;
51578;SDS011;47998;53.242;6.386;2023-07-28T07:07:14;10.88;;;7.28;;
51578;SDS011;47998;53.242;6.386;2023-07-28T07:09:39;7.38;;;5.88;;
51578;SDS011;47998;53.242;6.386;2023-07-28T07:12:07;8.88;;;6.28;;
51578;SDS011;47998;53.242;6.386;2023-07-28T07:14:34;11.80;;;7.20;;
51578;SDS011;47998;53.242;6.386;2023-07-28T07:16:59;6.85;;;6.15;;
51578;SDS011;47998;53.242;6.386;2023-07-28T07:19:26;8.05;;;6.75;;
51578;SDS011;47998;53.242;6.386;2023-07-28T07:21:54;8.40;;;6.18;;
51578;SDS011;47998;53.242;6.386;2023-07-28T07:24:20;8.65;;;6.90;;
51578;SDS011;47998;53.242;6.386;2023-07-28T07:26:46;8.10;;;7.30;;
51578;SDS011;47998;53.242;6.386;2023-07-28T07:29:12;7.85;;;6.72;;
51578;SDS011;47998;53.242;6.386;2023-07-28T07:31:38;10.23;;;6.82;;
51578;SDS011;47998;53.242;6.386;2023-07-28T07:34:03;5.97;;;5.13;;
51578;SDS011;47998;53.242;6.386;2023-07-28T07:36:29;9.50;;;6.60;;
51578;SDS011;47998;53.242;6.386;2023-07-28T07:38:56;8.85;;;7.63;;
51578;SDS011;47998;53.242;6.386;2023-07-28T07:41:22;9.80;;;8.80;;
51578;SDS011;47998;53.242;6.386;2023-07-28T07:43:48;8.32;;;7.53;;
51578;SDS011;47998;53.242;6.386;2023-07-28T07:46:15;7.97;;;6.65;;
51578;SDS011;47998;53.242;6.386;2023-07-28T07:48:41;8.27;;;6.18;;
51578;SDS011;47998;53.242;6.386;2023-07-28T07:51:07;5.93;;;5.35;;
51578;SDS011;47998;53.242;6.386;2023-07-28T07:53:34;6.90;;;6.20;;
51578;SDS011;47998;53.242;6.386;2023-07-28T07:56:01;6.47;;;5.43;;
51578;SDS011;47998;53.242;6.386;2023-07-28T07:58:31;8.13;;;6.10;;
51578;SDS011;47998;53.242;6.386;2023-07-28T08:00:57;7.78;;;6.95;;
51578;SDS011;47998;53.242;6.386;2023-07-28T08:03:23;7.93;;;6.50;;
51578;SDS011;47998;53.242;6.386;2023-07-28T08:05:49;9.93;;;7.90;;
51578;SDS011;47998;53.242;6.386;2023-07-28T08:08:16;10.10;;;7.75;;
51578;SDS011;47998;53.242;6.386;2023-07-28T08:10:42;10.52;;;8.23;;
51578;SDS011;47998;53.242;6.386;2023-07-28T08:13:08;9.02;;;8.13;;
51578;SDS011;47998;53.242;6.386;2023-07-28T08:15:34;10.70;;;9.68;;
51578;SDS011;47998;53.242;6.386;2023-07-28T08:18:00;9.77;;;8.40;;
51578;SDS011;47998;53.242;6.386;2023-07-28T08:20:26;11.80;;;9.07;;
51578;SDS011;47998;53.242;6.386;2023-07-28T08:22:51;11.70;;;9.55;;
51578;SDS011;47998;53.242;6.386;2023-07-28T08:25:17;10.65;;;9.48;;
51578;SDS011;47998;53.242;6.386;2023-07-28T08:27:43;10.50;;;9.48;;
51578;SDS011;47998;53.242;6.386;2023-07-28T08:30:09;13.07;;;11.43;;
51578;SDS011;47998;53.242;6.386;2023-07-28T08:32:35;9.52;;;8.50;;
51578;SDS011;47998;53.242;6.386;2023-07-28T08:35:01;11.15;;;10.15;;
51578;SDS011;47998;53.242;6.386;2023-07-28T08:37:28;10.15;;;9.05;;
51578;SDS011;47998;53.242;6.386;2023-07-28T08:39:54;9.73;;;8.68;;
51578;SDS011;47998;53.242;6.386;2023-07-28T08:42:20;8.63;;;7.82;;
51578;SDS011;47998;53.242;6.386;2023-07-28T08:44:47;8.52;;;7.60;;
51578;SDS011;47998;53.242;6.386;2023-07-28T08:47:13;8.65;;;7.05;;
51578;SDS011;47998;53.242;6.386;2023-07-28T08:49:39;6.97;;;5.47;;
51578;SDS011;47998;53.242;6.386;2023-07-28T08:52:05;8.20;;;6.53;;
51578;SDS011;47998;53.242;6.386;2023-07-28T08:54:31;7.28;;;6.55;;
51578;SDS011;47998;53.242;6.386;2023-07-28T08:56:57;6.95;;;6.15;;
51578;SDS011;47998;53.242;6.386;2023-07-28T08:59:24;8.93;;;7.40;;
51578;SDS011;47998;53.242;6.386;2023-07-28T09:01:52;8.20;;;7.20;;
51578;SDS011;47998;53.242;6.386;2023-07-28T09:04:19;8.27;;;7.30;;
51578;SDS011;47998;53.242;6.386;2023-07-28T09:06:46;6.10;;;5.50;;
51578;SDS011;47998;53.242;6.386;2023-07-28T09:09:16;5.68;;;5.18;;
51578;SDS011;47998;53.242;6.386;2023-07-28T09:11:47;6.43;;;5.07;;
51578;SDS011;47998;53.242;6.386;2023-07-28T09:14:15;6.47;;;5.47;;
51578;SDS011;47998;53.242;6.386;2023-07-28T09:16:41;6.07;;;5.47;;
51578;SDS011;47998;53.242;6.386;2023-07-28T09:19:08;7.10;;;6.40;;
51578;SDS011;47998;53.242;6.386;2023-07-28T09:21:35;4.90;;;4.43;;
51578;SDS011;47998;53.242;6.386;2023-07-28T09:24:06;6.65;;;6.05;;
51578;SDS011;47998;53.242;6.386;2023-07-28T09:26:40;6.95;;;4.97;;
51578;SDS011;47998;53.242;6.386;2023-07-28T09:29:13;5.72;;;5.20;;
51578;SDS011;47998;53.242;6.386;2023-07-28T09:31:40;5.80;;;5.30;;
51578;SDS011;47998;53.242;6.386;2023-07-28T09:34:07;6.75;;;5.72;;
51578;SDS011;47998;53.242;6.386;2023-07-28T09:36:34;5.00;;;4.50;;
51578;SDS011;47998;53.242;6.386;2023-07-28T09:39:01;3.90;;;3.53;;
51578;SDS011;47998;53.242;6.386;2023-07-28T09:41:29;4.32;;;3.75;;
51578;SDS011;47998;53.242;6.386;2023-07-28T09:43:55;5.20;;;3.83;;
51578;SDS011;47998;53.242;6.386;2023-07-28T09:46:22;5.88;;;2.75;;
51578;SDS011;47998;53.242;6.386;2023-07-28T09:48:53;2.83;;;2.28;;
51578;SDS011;47998;53.242;6.386;2023-07-28T09:51:25;2.53;;;1.83;;
51578;SDS011;47998;53.242;6.386;2023-07-28T09:53:56;5.32;;;2.75;;
51578;SDS011;47998;53.242;6.386;2023-07-28T09:56:28;5.00;;;2.28;;
51578;SDS011;47998;53.242;6.386;2023-07-28T09:58:54;4.43;;;3.38;;
51578;SDS011;47998;53.242;6.386;2023-07-28T10:01:22;6.28;;;3.50;;
51578;SDS011;47998;53.242;6.386;2023-07-28T10:03:49;4.35;;;3.95;;
51578;SDS011;47998;53.242;6.386;2023-07-28T10:06:15;5.28;;;4.57;;
51578;SDS011;47998;53.242;6.386;2023-07-28T10:08:42;5.05;;;2.90;;
51578;SDS011;47998;53.242;6.386;2023-07-28T10:11:10;3.80;;;3.47;;
51578;SDS011;47998;53.242;6.386;2023-07-28T10:13:40;3.30;;;3.00;;
51578;SDS011;47998;53.242;6.386;2023-07-28T10:16:07;4.18;;;3.47;;
51578;SDS011;47998;53.242;6.386;2023-07-28T10:18:39;9.63;;;5.45;;
51578;SDS011;47998;53.242;6.386;2023-07-28T10:21:06;8.57;;;5.03;;
51578;SDS011;47998;53.242;6.386;2023-07-28T10:23:40;4.95;;;3.85;;
51578;SDS011;47998;53.242;6.386;2023-07-28T10:26:06;4.65;;;3.42;;
51578;SDS011;47998;53.242;6.386;2023-07-28T10:28:34;4.60;;;4.20;;
51578;SDS011;47998;53.242;6.386;2023-07-28T10:31:04;5.65;;;5.10;;
51578;SDS011;47998;53.242;6.386;2023-07-28T10:33:35;6.88;;;4.25;;
51578;SDS011;47998;53.242;6.386;2023-07-28T10:36:14;8.65;;;3.78;;
51578;SDS011;47998;53.242;6.386;2023-07-28T10:38:41;4.05;;;3.35;;
51578;SDS011;47998;53.242;6.386;2023-07-28T10:41:15;3.35;;;2.47;;
51578;SDS011;47998;53.242;6.386;2023-07-28T10:43:43;2.60;;;2.13;;
51578;SDS011;47998;53.242;6.386;2023-07-28T10:46:10;3.15;;;1.73;;
51578;SDS011;47998;53.242;6.386;2023-07-28T10:48:43;4.40;;;2.92;;
51578;SDS011;47998;53.242;6.386;2023-07-28T10:51:20;4.00;;;2.88;;
51578;SDS011;47998;53.242;6.386;2023-07-28T10:53:51;6.05;;;3.28;;
51578;SDS011;47998;53.242;6.386;2023-07-28T10:56:17;2.90;;;2.70;;
51578;SDS011;47998;53.242;6.386;2023-07-28T10:58:44;6.50;;;2.42;;
51578;SDS011;47998;53.242;6.386;2023-07-28T11:01:09;3.70;;;2.13;;
51578;SDS011;47998;53.242;6.386;2023-07-28T11:03:36;3.25;;;2.30;;
51578;SDS011;47998;53.242;6.386;2023-07-28T11:06:02;5.75;;;2.13;;
51578;SDS011;47998;53.242;6.386;2023-07-28T11:08:28;3.15;;;2.30;;
51578;SDS011;47998;53.242;6.386;2023-07-28T11:10:54;4.53;;;2.55;;
51578;SDS011;47998;53.242;6.386;2023-07-28T11:13:20;3.03;;;2.28;;
51578;SDS011;47998;53.242;6.386;2023-07-28T11:15:47;3.03;;;1.73;;
51578;SDS011;47998;53.242;6.386;2023-07-28T11:18:15;2.30;;;2.10;;
51578;SDS011;47998;53.242;6.386;2023-07-28T11:20:41;2.65;;;1.45;;
51578;SDS011;47998;53.242;6.386;2023-07-28T11:23:07;5.10;;;2.25;;
51578;SDS011;47998;53.242;6.386;2023-07-28T11:25:33;2.63;;;1.92;;
51578;SDS011;47998;53.242;6.386;2023-07-28T11:28:01;2.35;;;1.50;;
51578;SDS011;47998;53.242;6.386;2023-07-28T11:30:31;3.78;;;1.73;;
51578;SDS011;47998;53.242;6.386;2023-07-28T11:32:57;2.38;;;1.63;;
51578;SDS011;47998;53.242;6.386;2023-07-28T11:35:23;5.10;;;1.85;;
51578;SDS011;47998;53.242;6.386;2023-07-28T11:37:50;4.20;;;1.98;;
51578;SDS011;47998;53.242;6.386;2023-07-28T11:40:18;2.25;;;1.33;;
51578;SDS011;47998;53.242;6.386;2023-07-28T11:42:47;2.53;;;1.80;;
51578;SDS011;47998;53.242;6.386;2023-07-28T11:45:15;3.33;;;1.23;;
51578;SDS011;47998;53.242;6.386;2023-07-28T11:50:29;2.13;;;1.20;;
51578;SDS011;47998;53.242;6.386;2023-07-28T11:52:59;1.55;;;1.40;;
51578;SDS011;47998;53.242;6.386;2023-07-28T11:55:25;2.55;;;0.73;;
51578;SDS011;47998;53.242;6.386;2023-07-28T11:57:52;1.65;;;0.90;;
51578;SDS011;47998;53.242;6.386;2023-07-28T12:00:18;2.03;;;1.10;;
51578;SDS011;47998;53.242;6.386;2023-07-28T12:02:59;2.92;;;1.00;;
51578;SDS011;47998;53.242;6.386;2023-07-28T12:05:36;2.25;;;1.30;;
51578;SDS011;47998;53.242;6.386;2023-07-28T12:08:03;1.17;;;0.70;;
51578;SDS011;47998;53.242;6.386;2023-07-28T12:10:29;1.92;;;1.02;;
51578;SDS011;47998;53.242;6.386;2023-07-28T12:12:57;1.00;;;0.68;;
51578;SDS011;47998;53.242;6.386;2023-07-28T12:15:28;2.15;;;1.08;;
51578;SDS011;47998;53.242;6.386;2023-07-28T12:18:09;2.85;;;0.77;;
51578;SDS011;47998;53.242;6.386;2023-07-28T12:20:37;1.65;;;1.27;;
51578;SDS011;47998;53.242;6.386;2023-07-28T12:23:17;1.48;;;0.88;;
51578;SDS011;47998;53.242;6.386;2023-07-28T12:25:44;2.40;;;1.38;;
51578;SDS011;47998;53.242;6.386;2023-07-28T12:28:10;2.58;;;1.63;;
51578;SDS011;47998;53.242;6.386;2023-07-28T12:30:36;3.60;;;1.08;;
51578;SDS011;47998;53.242;6.386;2023-07-28T12:33:03;1.83;;;0.80;;
51578;SDS011;47998;53.242;6.386;2023-07-28T12:35:30;1.63;;;1.00;;
51578;SDS011;47998;53.242;6.386;2023-07-28T12:37:59;1.13;;;1.00;;
51578;SDS011;47998;53.242;6.386;2023-07-28T12:40:30;1.50;;;0.90;;
51578;SDS011;47998;53.242;6.386;2023-07-28T12:42:57;1.42;;;0.73;;
51578;SDS011;47998;53.242;6.386;2023-07-28T12:45:24;2.05;;;0.98;;
51578;SDS011;47998;53.242;6.386;2023-07-28T12:47:54;1.67;;;1.05;;
51578;SDS011;47998;53.242;6.386;2023-07-28T12:50:24;0.95;;;0.85;;
51578;SDS011;47998;53.242;6.386;2023-07-28T12:52:50;1.75;;;1.27;;
51578;SDS011;47998;53.242;6.386;2023-07-28T12:55:17;1.00;;;0.90;;
51578;SDS011;47998;53.242;6.386;2023-07-28T12:57:43;2.13;;;1.02;;
51578;SDS011;47998;53.242;6.386;2023-07-28T13:00:10;1.88;;;0.95;;
51578;SDS011;47998;53.242;6.386;2023-07-28T13:02:41;1.15;;;0.77;;
51578;SDS011;47998;53.242;6.386;2023-07-28T13:05:10;1.63;;;1.27;;
51578;SDS011;47998;53.242;6.386;2023-07-28T13:07:37;1.95;;;1.08;;
51578;SDS011;47998;53.242;6.386;2023-07-28T13:10:05;1.85;;;1.20;;
51578;SDS011;47998;53.242;6.386;2023-07-28T13:12:32;1.20;;;0.93;;
51578;SDS011;47998;53.242;6.386;2023-07-28T13:14:57;1.42;;;0.90;;
51578;SDS011;47998;53.242;6.386;2023-07-28T13:17:23;1.60;;;1.10;;
51578;SDS011;47998;53.242;6.386;2023-07-28T13:19:49;1.58;;;1.27;;
51578;SDS011;47998;53.242;6.386;2023-07-28T13:22:15;1.75;;;1.50;;
51578;SDS011;47998;53.242;6.386;2023-07-28T13:24:41;1.92;;;0.98;;
51578;SDS011;47998;53.242;6.386;2023-07-28T13:27:08;1.98;;;0.98;;
51578;SDS011;47998;53.242;6.386;2023-07-28T13:29:34;3.30;;;1.30;;
51578;SDS011;47998;53.242;6.386;2023-07-28T13:32:00;3.20;;;1.20;;
51578;SDS011;47998;53.242;6.386;2023-07-28T13:34:28;1.30;;;1.20;;
51578;SDS011;47998;53.242;6.386;2023-07-28T13:36:55;5.53;;;2.17;;
51578;SDS011;47998;53.242;6.386;2023-07-28T13:39:21;2.08;;;1.23;;
51578;SDS011;47998;53.242;6.386;2023-07-28T13:41:47;2.58;;;1.35;;
51578;SDS011;47998;53.242;6.386;2023-07-28T13:44:13;1.85;;;0.90;;
51578;SDS011;47998;53.242;6.386;2023-07-28T13:46:38;2.22;;;1.45;;
51578;SDS011;47998;53.242;6.386;2023-07-28T13:49:04;3.42;;;1.58;;
51578;SDS011;47998;53.242;6.386;2023-07-28T13:51:30;2.72;;;1.30;;
51578;SDS011;47998;53.242;6.386;2023-07-28T13:53:56;1.20;;;1.10;;
51578;SDS011;47998;53.242;6.386;2023-07-28T13:56:22;1.98;;;1.00;;
51578;SDS011;47998;53.242;6.386;2023-07-28T13:58:50;1.88;;;1.20;;
51578;SDS011;47998;53.242;6.386;2023-07-28T14:01:16;1.38;;;1.17;;
51578;SDS011;47998;53.242;6.386;2023-07-28T14:03:42;2.42;;;1.10;;
51578;SDS011;47998;53.242;6.386;2023-07-28T14:06:07;1.92;;;1.33;;
51578;SDS011;47998;53.242;6.386;2023-07-28T14:08:33;2.22;;;1.30;;
51578;SDS011;47998;53.242;6.386;2023-07-28T14:10:59;2.08;;;1.10;;
51578;SDS011;47998;53.242;6.386;2023-07-28T14:13:24;1.70;;;0.63;;
51578;SDS011;47998;53.242;6.386;2023-07-28T14:15:50;2.63;;;1.75;;
51578;SDS011;47998;53.242;6.386;2023-07-28T14:18:16;1.98;;;1.20;;
51578;SDS011;47998;53.242;6.386;2023-07-28T14:20:42;1.73;;;1.20;;
51578;SDS011;47998;53.242;6.386;2023-07-28T14:23:20;1.73;;;1.30;;
51578;SDS011;47998;53.242;6.386;2023-07-28T14:25:49;2.13;;;1.30;;
51578;SDS011;47998;53.242;6.386;2023-07-28T14:28:15;1.73;;;1.10;;
51578;SDS011;47998;53.242;6.386;2023-07-28T14:30:41;1.73;;;1.10;;
51578;SDS011;47998;53.242;6.386;2023-07-28T14:33:11;3.53;;;1.40;;
51578;SDS011;47998;53.242;6.386;2023-07-28T14:35:38;1.13;;;0.98;;
51578;SDS011;47998;53.242;6.386;2023-07-28T14:38:04;3.33;;;1.58;;